Time;durP1;ratioP1;P1;durP2;ratioP2;P2;SDS_P1;SDS_P2;PMS_P1;PMS_P2;Temp;Humidity;BMP_temperature;BMP_pressure;BME280_temperature;BME280_humidity;BME280_pressure;Samples;Min_cycle;Max_cycle;Signal;HPM_P1;HPM_P2
2021/04/20 00:02:16;;;;;;;35.55;16.33;;;;;;;;;;5036728;28;20064;-64
2021/04/20 00:04:41;;;;;;;36.17;16.23;;;;;;;;;;5035352;28;20068;-63
2021/04/20 00:07:10;;;;;;;41.47;16.20;;;;;;;;;;5036843;28;20024;-64
2021/04/20 00:09:35;;;;;;;40.03;15.93;;;;;;;;;;5025688;28;20264;-64
2021/04/20 00:12:01;;;;;;;36.67;15.70;;;;;;;;;;5025572;28;20515;-64
2021/04/20 00:14:32;;;;;;;35.20;14.40;;;;;;;;;;5038152;28;20488;-63
2021/04/20 00:16:58;;;;;;;42.65;16.27;;;;;;;;;;5037242;28;20031;-64
2021/04/20 00:19:23;;;;;;;40.10;15.93;;;;;;;;;;5036614;28;20024;-64
2021/04/20 00:21:49;;;;;;;39.00;16.88;;;;;;;;;;5036714;28;20086;-63
2021/04/20 00:24:14;;;;;;;36.42;16.13;;;;;;;;;;5039891;28;20039;-63
2021/04/20 00:26:43;;;;;;;39.35;15.77;;;;;;;;;;5036674;28;20376;-63
2021/04/20 00:29:09;;;;;;;35.65;14.95;;;;;;;;;;5038521;28;20076;-63
2021/04/20 00:31:41;;;;;;;36.15;15.30;;;;;;;;;;5018761;28;21112;-64
2021/04/20 00:34:12;;;;;;;37.10;15.23;;;;;;;;;;5035632;28;20155;-64
2021/04/20 00:36:38;;;;;;;34.13;14.82;;;;;;;;;;5037472;28;20656;-63
2021/04/20 00:39:04;;;;;;;38.35;15.43;;;;;;;;;;5043634;28;20030;-64
2021/04/20 00:41:33;;;;;;;37.78;16.08;;;;;;;;;;5037817;28;20075;-64
2021/04/20 00:43:59;;;;;;;40.30;15.63;;;;;;;;;;5037821;28;20032;-65
2021/04/20 00:46:24;;;;;;;37.03;16.45;;;;;;;;;;5037819;28;20937;-64
2021/04/20 00:48:50;;;;;;;35.17;15.60;;;;;;;;;;5042413;28;21046;-63
2021/04/20 00:51:18;;;;;;;31.88;15.35;;;;;;;;;;5042528;28;20121;-63
2021/04/20 00:53:47;;;;;;;35.75;16.08;;;;;;;;;;5035454;28;20180;-63
2021/04/20 00:56:17;;;;;;;34.95;15.90;;;;;;;;;;5037155;28;20464;-63
2021/04/20 00:58:43;;;;;;;31.55;14.82;;;;;;;;;;5037211;28;20453;-64
2021/04/20 01:01:13;;;;;;;31.98;13.82;;;;;;;;;;5036368;28;20037;-65
2021/04/20 01:03:39;;;;;;;35.08;15.70;;;;;;;;;;5022675;28;20057;-64
2021/04/20 01:06:05;;;;;;;36.08;16.75;;;;;;;;;;5036943;28;20035;-64
2021/04/20 01:08:34;;;;;;;38.05;16.45;;;;;;;;;;5037886;28;20040;-64
2021/04/20 01:11:00;;;;;;;36.70;15.90;;;;;;;;;;5019400;28;20142;-64
2021/04/20 01:13:30;;;;;;;37.78;16.33;;;;;;;;;;5041426;28;22074;-64
2021/04/20 01:15:56;;;;;;;34.78;15.73;;;;;;;;;;5041424;28;20669;-64
2021/04/20 01:18:35;;;;;;;34.17;15.30;;;;;;;;;;5037715;28;20028;-65
2021/04/20 01:21:01;;;;;;;35.67;15.43;;;;;;;;;;5038400;28;20044;-64
2021/04/20 01:23:46;;;;;;;34.78;15.93;;;;;;;;;;5039677;28;20428;-64
2021/04/20 01:26:11;;;;;;;38.35;17.00;;;;;;;;;;5028945;28;20045;-64
2021/04/20 01:28:37;;;;;;;35.03;15.50;;;;;;;;;;5040156;28;20040;-63
2021/04/20 01:31:03;;;;;;;40.08;17.40;;;;;;;;;;5040745;28;20838;-63
2021/04/20 01:33:28;;;;;;;44.47;19.30;;;;;;;;;;5028061;28;21081;-63
2021/04/20 01:35:54;;;;;;;46.80;18.48;;;;;;;;;;5022330;28;20043;-63
2021/04/20 01:38:21;;;;;;;33.88;16.77;;;;;;;;;;5039849;28;20689;-63
2021/04/20 01:40:47;;;;;;;41.25;17.38;;;;;;;;;;5037766;28;20053;-64
2021/04/20 01:43:13;;;;;;;44.00;18.13;;;;;;;;;;5038980;28;20040;-62
2021/04/20 01:45:40;;;;;;;39.80;17.27;;;;;;;;;;5038341;28;20041;-63
2021/04/20 01:48:05;;;;;;;39.28;17.73;;;;;;;;;;5036019;28;20059;-63
2021/04/20 01:50:31;;;;;;;39.65;17.58;;;;;;;;;;5041364;28;20021;-63
2021/04/20 01:52:56;;;;;;;41.00;16.30;;;;;;;;;;5044752;28;20090;-63
2021/04/20 01:55:22;;;;;;;41.13;17.88;;;;;;;;;;5041370;28;20052;-64
2021/04/20 01:57:49;;;;;;;42.92;18.38;;;;;;;;;;5039347;28;20025;-63
2021/04/20 02:00:16;;;;;;;40.85;17.75;;;;;;;;;;5039684;28;20555;-62
2021/04/20 02:02:44;;;;;;;38.25;16.77;;;;;;;;;;5030954;28;20079;-63
2021/04/20 02:05:10;;;;;;;40.13;17.27;;;;;;;;;;5040962;28;20071;-63
2021/04/20 02:07:37;;;;;;;44.55;18.60;;;;;;;;;;5060643;28;20334;-62
2021/04/20 02:10:09;;;;;;;38.40;18.00;;;;;;;;;;5048222;28;20032;-64
2021/04/20 02:12:38;;;;;;;40.45;17.70;;;;;;;;;;5060008;28;20040;-64
2021/04/20 02:15:04;;;;;;;39.45;18.05;;;;;;;;;;5059285;28;20081;-63
2021/04/20 02:17:31;;;;;;;31.70;16.30;;;;;;;;;;5044370;28;20048;-63
2021/04/20 02:19:57;;;;;;;35.42;16.17;;;;;;;;;;5058876;28;20031;-63
2021/04/20 02:22:26;;;;;;;37.17;15.82;;;;;;;;;;5040807;28;20123;-63
2021/04/20 02:24:53;;;;;;;32.40;14.07;;;;;;;;;;5059195;28;20040;-64
2021/04/20 02:27:19;;;;;;;38.55;16.85;;;;;;;;;;5041891;28;20036;-63
2021/04/20 02:29:45;;;;;;;40.85;16.48;;;;;;;;;;5041220;28;20034;-63
2021/04/20 02:32:13;;;;;;;34.40;15.02;;;;;;;;;;5057413;28;22046;-63
2021/04/20 02:34:38;;;;;;;35.80;15.90;;;;;;;;;;5058871;28;20175;-63
2021/04/20 02:37:03;;;;;;;40.25;17.38;;;;;;;;;;5024306;28;20467;-64
2021/04/20 02:39:31;;;;;;;38.22;15.75;;;;;;;;;;5040124;28;20048;-64
2021/04/20 02:41:57;;;;;;;40.85;17.75;;;;;;;;;;5059450;28;20032;-64
2021/04/20 02:44:22;;;;;;;36.30;17.33;;;;;;;;;;5061581;28;20042;-64
2021/04/20 02:46:48;;;;;;;41.35;18.10;;;;;;;;;;5041474;28;20025;-64
2021/04/20 02:49:14;;;;;;;39.85;17.58;;;;;;;;;;5056489;28;20386;-64
2021/04/20 02:51:40;;;;;;;40.47;16.95;;;;;;;;;;5059808;28;20033;-64
2021/04/20 02:54:06;;;;;;;37.95;17.75;;;;;;;;;;5039784;28;20759;-64
2021/04/20 02:56:32;;;;;;;39.42;17.60;;;;;;;;;;5057638;28;20386;-64
2021/04/20 02:58:59;;;;;;;30.50;15.98;;;;;;;;;;5041898;28;20043;-63
2021/04/20 03:01:29;;;;;;;44.38;18.13;;;;;;;;;;5054447;28;20129;-64
2021/04/20 03:03:57;;;;;;;39.92;18.85;;;;;;;;;;5041544;28;20056;-63
2021/04/20 03:06:23;;;;;;;37.20;16.35;;;;;;;;;;5058526;28;20032;-63
2021/04/20 03:08:49;;;;;;;39.92;16.48;;;;;;;;;;5030039;28;20402;-63
2021/04/20 03:11:27;;;;;;;40.05;18.35;;;;;;;;;;5025720;28;20032;-64
2021/04/20 03:13:52;;;;;;;44.08;18.67;;;;;;;;;;5039760;28;20028;-63
2021/04/20 03:16:18;;;;;;;39.45;17.13;;;;;;;;;;5044962;28;20100;-64
2021/04/20 03:18:47;;;;;;;43.53;19.13;;;;;;;;;;5039608;28;20081;-64
2021/04/20 03:21:17;;;;;;;37.92;16.83;;;;;;;;;;5057217;28;20084;-64
2021/04/20 03:23:43;;;;;;;38.30;17.98;;;;;;;;;;5056903;28;20127;-63
2021/04/20 03:26:23;;;;;;;48.83;20.02;;;;;;;;;;5041422;28;20046;-64
2021/04/20 03:28:51;;;;;;;40.30;18.95;;;;;;;;;;5059460;28;20027;-64
2021/04/20 03:31:17;;;;;;;38.85;17.83;;;;;;;;;;5058305;28;20024;-63
2021/04/20 03:33:44;;;;;;;44.33;18.92;;;;;;;;;;5040312;28;20129;-63
2021/04/20 03:36:12;;;;;;;38.75;18.55;;;;;;;;;;5041234;28;20059;-63
2021/04/20 03:38:51;;;;;;;46.40;17.50;;;;;;;;;;5028180;28;20061;-64
2021/04/20 03:41:27;;;;;;;38.85;18.50;;;;;;;;;;5021015;28;20025;-63
2021/04/20 03:43:54;;;;;;;46.75;19.13;;;;;;;;;;5037095;28;20039;-63
2021/04/20 03:46:21;;;;;;;35.88;18.88;;;;;;;;;;5058182;28;20218;-64
2021/04/20 03:48:50;;;;;;;47.33;19.90;;;;;;;;;;5029065;28;20656;-64
2021/04/20 03:51:16;;;;;;;40.88;20.35;;;;;;;;;;5039437;28;20032;-63
2021/04/20 03:53:42;;;;;;;42.50;18.00;;;;;;;;;;5059269;28;20146;-63
2021/04/20 03:56:08;;;;;;;43.55;18.10;;;;;;;;;;5044354;28;20039;-63
2021/04/20 03:58:35;;;;;;;36.40;16.27;;;;;;;;;;5056455;28;20565;-63
2021/04/20 04:01:02;;;;;;;42.58;16.92;;;;;;;;;;5057484;28;20119;-64
2021/04/20 04:03:28;;;;;;;36.40;16.73;;;;;;;;;;5023461;28;20044;-64
2021/04/20 04:05:54;;;;;;;31.35;15.65;;;;;;;;;;5059994;28;20619;-63
2021/04/20 04:08:20;;;;;;;42.10;17.83;;;;;;;;;;5038735;28;20021;-64
2021/04/20 04:10:50;;;;;;;40.53;17.80;;;;;;;;;;5038178;28;20036;-63
2021/04/20 04:13:17;;;;;;;35.85;16.52;;;;;;;;;;5039887;28;20049;-64
2021/04/20 04:15:44;;;;;;;38.10;17.02;;;;;;;;;;5055738;28;20075;-63
2021/04/20 04:18:12;;;;;;;36.85;16.98;;;;;;;;;;5037022;28;20040;-64
2021/04/20 04:20:37;;;;;;;35.80;16.30;;;;;;;;;;5046039;28;20068;-63
2021/04/20 04:23:11;;;;;;;32.97;15.55;;;;;;;;;;5056237;28;20150;-64
2021/04/20 04:25:38;;;;;;;42.47;18.08;;;;;;;;;;5028621;28;20070;-63
2021/04/20 04:28:06;;;;;;;33.80;16.23;;;;;;;;;;5052699;28;20121;-63
2021/04/20 04:30:32;;;;;;;34.65;17.00;;;;;;;;;;5055982;28;20032;-64
2021/04/20 04:32:59;;;;;;;29.33;15.85;;;;;;;;;;5057088;28;20096;-64
2021/04/20 04:35:26;;;;;;;36.53;16.50;;;;;;;;;;5057478;28;20495;-63
2021/04/20 04:37:51;;;;;;;32.50;14.52;;;;;;;;;;5056861;28;20040;-64
2021/04/20 04:40:18;;;;;;;39.97;16.60;;;;;;;;;;5058223;28;20572;-64
2021/04/20 04:42:43;;;;;;;24.85;12.75;;;;;;;;;;5057784;28;20040;-64
2021/04/20 04:45:10;;;;;;;34.22;15.90;;;;;;;;;;5044767;28;21063;-64
2021/04/20 04:47:37;;;;;;;38.17;16.52;;;;;;;;;;5048614;28;20039;-64
2021/04/20 04:50:04;;;;;;;33.72;15.98;;;;;;;;;;5043960;28;20036;-65
2021/04/20 04:52:33;;;;;;;24.65;13.20;;;;;;;;;;5044405;28;20372;-65
2021/04/20 04:55:01;;;;;;;35.47;16.38;;;;;;;;;;5047444;28;20041;-64
2021/04/20 04:57:27;;;;;;;34.47;15.45;;;;;;;;;;5059288;28;20024;-63
2021/04/20 05:00:04;;;;;;;32.55;14.20;;;;;;;;;;5060027;28;20024;-64
2021/04/20 05:02:34;;;;;;;32.45;14.55;;;;;;;;;;5061776;28;20028;-65
2021/04/20 05:05:07;;;;;;;30.75;13.77;;;;;;;;;;5061621;28;20458;-62
2021/04/20 05:07:32;;;;;;;28.35;14.00;;;;;;;;;;5028831;28;20044;-63
2021/04/20 05:10:05;;;;;;;28.08;13.18;;;;;;;;;;5041742;28;20032;-63
2021/04/20 05:12:31;;;;;;;23.58;13.48;;;;;;;;;;5056554;28;20063;-63
2021/04/20 05:15:03;;;;;;;22.85;12.88;;;;;;;;;;5048856;28;20113;-63
2021/04/20 05:17:29;;;;;;;27.13;12.63;;;;;;;;;;5056527;28;20031;-63
2021/04/20 05:19:54;;;;;;;21.35;12.45;;;;;;;;;;5060293;28;20436;-64
2021/04/20 05:22:20;;;;;;;28.10;13.07;;;;;;;;;;5048361;28;20046;-64
2021/04/20 05:24:46;;;;;;;27.85;11.90;;;;;;;;;;5060857;28;20028;-63
2021/04/20 05:27:11;;;;;;;22.80;11.55;;;;;;;;;;5047308;28;20032;-64
2021/04/20 05:29:38;;;;;;;23.15;11.85;;;;;;;;;;5060971;28;20020;-64
2021/04/20 05:32:04;;;;;;;23.48;11.32;;;;;;;;;;5041201;28;20043;-64
2021/04/20 05:34:30;;;;;;;21.35;11.93;;;;;;;;;;5060345;28;20029;-65
2021/04/20 05:36:55;;;;;;;20.70;11.38;;;;;;;;;;5059120;28;20027;-63
2021/04/20 05:39:21;;;;;;;26.20;11.30;;;;;;;;;;5040065;28;20034;-63
2021/04/20 05:41:47;;;;;;;24.63;11.27;;;;;;;;;;5041804;28;20043;-64
2021/04/20 05:44:17;;;;;;;21.23;11.63;;;;;;;;;;5060042;28;20044;-64
2021/04/20 05:46:48;;;;;;;27.55;12.32;;;;;;;;;;5061495;28;20040;-65
2021/04/20 05:49:17;;;;;;;20.60;10.77;;;;;;;;;;5047590;28;20096;-63
2021/04/20 05:51:46;;;;;;;30.48;12.75;;;;;;;;;;5049361;28;20067;-64
2021/04/20 05:54:12;;;;;;;22.55;11.68;;;;;;;;;;5031513;28;20052;-64
2021/04/20 05:56:38;;;;;;;22.38;11.85;;;;;;;;;;5040529;28;20024;-65
2021/04/20 05:59:09;;;;;;;21.70;12.15;;;;;;;;;;5044377;28;20039;-67
2021/04/20 06:01:39;;;;;;;20.58;11.30;;;;;;;;;;5042127;28;20056;-64
2021/04/20 06:04:10;;;;;;;24.80;12.38;;;;;;;;;;5060133;28;20071;-65
2021/04/20 06:06:37;;;;;;;23.05;12.27;;;;;;;;;;5030967;28;20119;-65
2021/04/20 06:09:06;;;;;;;23.05;11.50;;;;;;;;;;5038862;28;20035;-65
2021/04/20 06:11:36;;;;;;;24.08;11.55;;;;;;;;;;5040613;28;20043;-65
2021/04/20 06:14:19;;;;;;;16.42;9.35;;;;;;;;;;4997521;28;20287;-65
2021/04/20 06:16:53;;;;;;;18.75;10.57;;;;;;;;;;4999004;28;20073;-64
2021/04/20 06:19:23;;;;;;;17.48;10.80;;;;;;;;;;4996985;28;20061;-66
2021/04/20 06:21:51;;;;;;;19.52;11.02;;;;;;;;;;5000291;28;20053;-64
2021/04/20 06:24:17;;;;;;;25.48;11.45;;;;;;;;;;4999027;28;20084;-64
2021/04/20 06:26:43;;;;;;;20.25;10.90;;;;;;;;;;4998032;28;20087;-64
2021/04/20 06:29:13;;;;;;;24.17;11.38;;;;;;;;;;4981274;28;20477;-65
2021/04/20 06:31:42;;;;;;;21.00;10.85;;;;;;;;;;4997395;28;20107;-65
2021/04/20 06:34:14;;;;;;;20.83;10.50;;;;;;;;;;4980489;28;20074;-66
2021/04/20 06:36:51;;;;;;;22.20;9.40;;;;;;;;;;4998338;28;20102;-66
2021/04/20 06:39:32;;;;;;;18.75;9.55;;;;;;;;;;4981893;28;21056;-66
2021/04/20 06:42:06;;;;;;;14.10;8.48;;;;;;;;;;4981664;28;20036;-65
2021/04/20 06:44:45;;;;;;;15.55;8.07;;;;;;;;;;5006021;28;20078;-65
2021/04/20 06:47:15;;;;;;;21.08;8.40;;;;;;;;;;5041882;28;20566;-67
2021/04/20 06:49:59;;;;;;;11.25;7.18;;;;;;;;;;5038802;28;20748;-66
2021/04/20 06:52:44;;;;;;;14.00;7.75;;;;;;;;;;5046286;28;20492;-64
2021/04/20 06:55:22;;;;;;;12.60;7.43;;;;;;;;;;5058741;28;20036;-66
2021/04/20 06:57:49;;;;;;;;;;;;;;;;;;5047468;28;20036;-66
2021/04/20 07:00:24;;;;;;;13.18;6.90;;;;;;;;;;5057856;28;20034;-64
2021/04/20 07:03:02;;;;;;;14.05;7.55;;;;;;;;;;5039167;28;20032;-65
2021/04/20 07:05:52;;;;;;;15.85;7.90;;;;;;;;;;5047643;28;20046;-65
2021/04/20 07:08:22;;;;;;;14.98;7.95;;;;;;;;;;5056724;28;20037;-66
2021/04/20 07:10:48;;;;;;;11.75;6.85;;;;;;;;;;5054880;28;20039;-65
2021/04/20 07:13:20;;;;;;;14.63;7.30;;;;;;;;;;5041300;28;20133;-66
2021/04/20 07:15:53;;;;;;;9.20;6.03;;;;;;;;;;5057527;28;20063;-66
2021/04/20 07:18:40;;;;;;;12.35;5.60;;;;;;;;;;5038011;28;20033;-64
2021/04/20 07:21:21;;;;;;;10.43;5.75;;;;;;;;;;5057537;28;20036;-64
2021/04/20 07:24:05;;;;;;;12.23;5.65;;;;;;;;;;5058553;28;20035;-64
2021/04/20 07:26:38;;;;;;;10.32;5.20;;;;;;;;;;5040434;28;20655;-65
2021/04/20 07:29:26;;;;;;;9.05;5.90;;;;;;;;;;5023595;28;20028;-63
2021/04/20 07:32:10;;;;;;;8.65;5.55;;;;;;;;;;5028625;28;20029;-64
2021/04/20 07:34:41;;;;;;;14.37;6.53;;;;;;;;;;5039106;28;20042;-64
2021/04/20 07:37:11;;;;;;;10.63;5.95;;;;;;;;;;5057420;28;20793;-65
2021/04/20 07:39:55;;;;;;;13.52;6.00;;;;;;;;;;5029133;28;20758;-63
2021/04/20 07:42:23;;;;;;;8.55;4.88;;;;;;;;;;5029923;28;20035;-63
2021/04/20 07:44:56;;;;;;;14.95;6.00;;;;;;;;;;5040475;28;20024;-64
2021/04/20 07:47:24;;;;;;;8.25;5.15;;;;;;;;;;5056826;28;20020;-65
2021/04/20 07:49:58;;;;;;;9.38;5.40;;;;;;;;;;5055922;28;20035;-64
2021/04/20 07:52:30;;;;;;;13.35;5.03;;;;;;;;;;5059914;28;20020;-63
2021/04/20 07:55:00;;;;;;;10.65;5.15;;;;;;;;;;5038922;28;20028;-65
2021/04/20 07:57:35;;;;;;;12.38;5.88;;;;;;;;;;5039811;28;20017;-65
2021/04/20 08:00:06;;;;;;;7.57;5.57;;;;;;;;;;5040328;28;20620;-64
2021/04/20 08:02:39;;;;;;;6.97;5.03;;;;;;;;;;5040434;28;20545;-64
2021/04/20 08:05:27;;;;;;;8.55;5.65;;;;;;;;;;5044183;28;20044;-64
2021/04/20 08:07:54;;;;;;;9.27;4.97;;;;;;;;;;5043397;28;20090;-64
2021/04/20 08:10:24;;;;;;;10.88;5.65;;;;;;;;;;5036172;28;20563;-64
2021/04/20 08:12:53;;;;;;;11.52;5.50;;;;;;;;;;5035812;28;20105;-65
2021/04/20 08:15:31;;;;;;;8.95;5.38;;;;;;;;;;5038404;28;20024;-64
2021/04/20 08:18:02;;;;;;;11.98;5.25;;;;;;;;;;5019389;28;20086;-65
2021/04/20 08:20:28;;;;;;;7.78;5.00;;;;;;;;;;5042486;28;20112;-64
2021/04/20 08:22:55;;;;;;;7.45;4.72;;;;;;;;;;5041354;28;20673;-66
2021/04/20 08:25:23;;;;;;;7.22;5.00;;;;;;;;;;5045765;28;20159;-65
2021/04/20 08:28:00;;;;;;;6.32;4.38;;;;;;;;;;5046947;28;20048;-65
2021/04/20 08:30:28;;;;;;;6.78;5.05;;;;;;;;;;5027790;28;20418;-64
2021/04/20 08:32:54;;;;;;;12.00;5.28;;;;;;;;;;5042517;28;20767;-64
2021/04/20 08:35:21;;;;;;;8.20;4.80;;;;;;;;;;5047497;28;20504;-65
2021/04/20 08:37:58;;;;;;;10.10;4.88;;;;;;;;;;5044274;28;20033;-66
2021/04/20 08:40:24;;;;;;;11.88;4.63;;;;;;;;;;5041010;28;20563;-64
2021/04/20 08:43:05;;;;;;;11.00;4.70;;;;;;;;;;5038107;28;20039;-65
2021/04/20 08:45:42;;;;;;;7.28;4.03;;;;;;;;;;5047481;28;20036;-64
2021/04/20 08:48:08;;;;;;;8.35;4.65;;;;;;;;;;5040179;28;20036;-65
2021/04/20 08:50:36;;;;;;;10.00;5.43;;;;;;;;;;5041137;28;21415;-64
2021/04/20 08:53:42;;;;;;;13.07;4.50;;;;;;;;;;5026601;28;20033;-64
2021/04/20 08:56:19;;;;;;;8.07;4.45;;;;;;;;;;4990024;28;20038;-65
2021/04/20 08:59:06;;;;;;;7.57;4.50;;;;;;;;;;4990606;28;20667;-64
2021/04/20 09:01:40;;;;;;;7.18;4.50;;;;;;;;;;5017411;28;21713;-65
2021/04/20 09:04:35;;;;;;;6.03;3.80;;;;;;;;;;5051279;28;20567;-64
2021/04/20 09:07:11;;;;;;;8.13;4.25;;;;;;;;;;5043517;28;20036;-65
2021/04/20 09:09:38;;;;;;;7.35;3.92;;;;;;;;;;5061542;28;20479;-65
2021/04/20 09:12:07;;;;;;;6.25;4.00;;;;;;;;;;5040446;28;20047;-64
2021/04/20 09:14:40;;;;;;;13.43;3.53;;;;;;;;;;5059358;28;20589;-65
2021/04/20 09:17:11;;;;;;;21.58;5.13;;;;;;;;;;5061476;28;20032;-66
2021/04/20 09:19:43;;;;;;;10.63;4.03;;;;;;;;;;5058605;28;20059;-65
2021/04/20 09:22:14;;;;;;;6.38;3.63;;;;;;;;;;5043674;28;20105;-64
2021/04/20 09:24:43;;;;;;;;;;;;;;;;;;5061966;28;20426;-65
2021/04/20 09:27:09;;;;;;;6.65;3.95;;;;;;;;;;5058833;28;19916;-64
2021/04/20 09:29:38;;;;;;;9.25;3.80;;;;;;;;;;5050052;28;20043;-65
2021/04/20 09:32:16;;;;;;;10.43;4.00;;;;;;;;;;5040446;28;20070;-65
2021/04/20 09:34:44;;;;;;;9.35;3.45;;;;;;;;;;5060705;28;20032;-65
2021/04/20 09:37:12;;;;;;;7.10;3.80;;;;;;;;;;5031202;28;20036;-65
2021/04/20 09:39:41;;;;;;;5.28;3.47;;;;;;;;;;5049470;28;20032;-66
2021/04/20 09:42:10;;;;;;;9.32;4.10;;;;;;;;;;5060534;28;20025;-64
2021/04/20 09:44:44;;;;;;;16.08;4.43;;;;;;;;;;5044142;28;20024;-64
2021/04/20 09:47:29;;;;;;;8.57;3.70;;;;;;;;;;5049026;28;20028;-65
2021/04/20 09:50:13;;;;;;;6.22;3.90;;;;;;;;;;5042691;28;20529;-64
2021/04/20 09:52:44;;;;;;;7.60;3.42;;;;;;;;;;5058851;28;20041;-65
2021/04/20 09:55:13;;;;;;;7.28;4.00;;;;;;;;;;5044774;28;20032;-65
2021/04/20 09:57:44;;;;;;;8.48;3.72;;;;;;;;;;5023743;28;20178;-65
2021/04/20 10:00:13;;;;;;;10.50;3.63;;;;;;;;;;5041202;28;20257;-63
2021/04/20 10:02:43;;;;;;;6.15;3.67;;;;;;;;;;5040835;28;20032;-64
2021/04/20 10:05:08;;;;;;;9.65;3.42;;;;;;;;;;5025866;28;21736;-65
2021/04/20 10:07:41;;;;;;;7.47;3.95;;;;;;;;;;5061112;28;20045;-65
2021/04/20 10:10:16;;;;;;;6.90;3.58;;;;;;;;;;5044215;28;20063;-64
2021/04/20 10:12:41;;;;;;;6.53;3.60;;;;;;;;;;5058200;28;20036;-64
2021/04/20 10:15:10;;;;;;;6.88;3.45;;;;;;;;;;5038989;28;20140;-65
2021/04/20 10:17:40;;;;;;;5.22;3.53;;;;;;;;;;5039885;28;20029;-66
2021/04/20 10:20:13;;;;;;;5.97;3.55;;;;;;;;;;5039540;28;20492;-64
2021/04/20 10:22:57;;;;;;;6.60;3.83;;;;;;;;;;5037975;28;20441;-65
2021/04/20 10:25:22;;;;;;;;;;;;;;;;;;5060106;28;21847;-64
2021/04/20 10:27:50;;;;;;;5.07;3.05;;;;;;;;;;5039112;28;19923;-64
2021/04/20 10:30:21;;;;;;;7.47;3.67;;;;;;;;;;5058933;28;20033;-67
2021/04/20 10:32:51;;;;;;;6.28;3.25;;;;;;;;;;5038794;28;20376;-64
2021/04/20 10:35:18;;;;;;;7.18;3.20;;;;;;;;;;5058505;28;20028;-65
2021/04/20 10:37:47;;;;;;;8.32;3.10;;;;;;;;;;5043242;28;20024;-65
2021/04/20 10:40:14;;;;;;;6.97;3.42;;;;;;;;;;5039198;28;20032;-64
2021/04/20 10:42:44;;;;;;;8.68;3.20;;;;;;;;;;5057817;28;20036;-68
2021/04/20 10:45:11;;;;;;;5.00;3.28;;;;;;;;;;5059295;28;20064;-65
2021/04/20 10:47:39;;;;;;;9.25;3.05;;;;;;;;;;5059363;28;20028;-66
2021/04/20 10:50:07;;;;;;;7.03;3.17;;;;;;;;;;5058269;28;20029;-63
2021/04/20 10:52:38;;;;;;;10.07;2.88;;;;;;;;;;5030925;28;20043;-65
2021/04/20 10:55:08;;;;;;;6.70;3.35;;;;;;;;;;5048409;28;20146;-65
2021/04/20 10:57:38;;;;;;;4.32;2.85;;;;;;;;;;5038010;28;20059;-64
2021/04/20 11:00:05;;;;;;;6.13;2.72;;;;;;;;;;5055792;28;20113;-64
2021/04/20 11:02:37;;;;;;;4.30;2.90;;;;;;;;;;5058322;28;20035;-64
2021/04/20 11:05:04;;;;;;;5.55;2.95;;;;;;;;;;5056351;28;20024;-64
2021/04/20 11:07:42;;;;;;;3.75;2.85;;;;;;;;;;5027789;28;20032;-66
2021/04/20 11:10:11;;;;;;;2.33;1.92;;;;;;;;;;5020240;28;20035;-64
2021/04/20 11:12:43;;;;;;;7.20;2.33;;;;;;;;;;5055791;28;20086;-65
2021/04/20 11:15:13;;;;;;;4.38;2.80;;;;;;;;;;5039262;28;20097;-66
2021/04/20 11:17:42;;;;;;;5.90;2.67;;;;;;;;;;5025985;28;20024;-64
2021/04/20 11:20:10;;;;;;;5.22;2.25;;;;;;;;;;5055756;28;20039;-65
2021/04/20 11:22:50;;;;;;;3.35;2.28;;;;;;;;;;5025124;28;20101;-65
2021/04/20 11:25:19;;;;;;;4.75;2.40;;;;;;;;;;5056582;28;20069;-64
2021/04/20 11:27:46;;;;;;;3.78;2.45;;;;;;;;;;5044368;28;20032;-65
2021/04/20 11:30:15;;;;;;;5.53;2.40;;;;;;;;;;5038999;28;20034;-65
2021/04/20 11:32:48;;;;;;;6.60;2.50;;;;;;;;;;5040605;28;20036;-64
2021/04/20 11:35:19;;;;;;;6.07;2.17;;;;;;;;;;5056238;28;21319;-64
2021/04/20 11:37:46;;;;;;;4.82;2.03;;;;;;;;;;5040003;28;20029;-65
2021/04/20 11:40:18;;;;;;;3.30;2.40;;;;;;;;;;5057671;28;20139;-65
2021/04/20 11:42:50;;;;;;;4.38;2.13;;;;;;;;;;5026598;28;20056;-65
2021/04/20 11:45:20;;;;;;;6.55;2.58;;;;;;;;;;5042202;28;20061;-65
2021/04/20 11:47:53;;;;;;;3.85;2.10;;;;;;;;;;5038104;28;20029;-64
2021/04/20 11:50:19;;;;;;;4.67;2.20;;;;;;;;;;5041070;28;20128;-66
2021/04/20 11:52:46;;;;;;;4.30;1.90;;;;;;;;;;5037709;28;20305;-67
2021/04/20 11:55:17;;;;;;;3.13;1.67;;;;;;;;;;5053684;28;20035;-66
2021/04/20 11:57:44;;;;;;;2.17;1.38;;;;;;;;;;5056495;28;20501;-66
2021/04/20 12:00:13;;;;;;;4.60;2.03;;;;;;;;;;5039301;28;20032;-64
2021/04/20 12:02:39;;;;;;;4.88;1.92;;;;;;;;;;5057427;28;20035;-64
2021/04/20 12:05:10;;;;;;;3.17;1.67;;;;;;;;;;5036138;28;20247;-64
2021/04/20 12:07:36;;;;;;;4.95;2.00;;;;;;;;;;5024960;28;20052;-65
2021/04/20 12:10:05;;;;;;;2.70;1.52;;;;;;;;;;5057089;28;20602;-65
2021/04/20 12:12:34;;;;;;;3.80;1.70;;;;;;;;;;5050826;28;20143;-65
2021/04/20 12:15:02;;;;;;;2.78;1.73;;;;;;;;;;5041256;28;21959;-65
2021/04/20 12:17:31;;;;;;;4.80;1.30;;;;;;;;;;5055392;28;20934;-64
2021/04/20 12:19:59;;;;;;;4.05;1.27;;;;;;;;;;5037567;28;20089;-66
2021/04/20 12:22:25;;;;;;;2.75;1.17;;;;;;;;;;5039175;28;20495;-64
2021/04/20 12:24:54;;;;;;;3.72;1.40;;;;;;;;;;5044806;28;20727;-65
2021/04/20 12:27:24;;;;;;;3.47;1.50;;;;;;;;;;5058384;28;20111;-64
2021/04/20 12:29:53;;;;;;;3.13;1.40;;;;;;;;;;5057943;28;20028;-66
2021/04/20 12:32:19;;;;;;;5.65;1.52;;;;;;;;;;5021762;28;20526;-65
2021/04/20 12:34:45;;;;;;;3.00;1.20;;;;;;;;;;5043124;28;20127;-65
2021/04/20 12:37:11;;;;;;;2.67;1.20;;;;;;;;;;5055329;28;20697;-70
2021/04/20 12:39:46;;;;;;;3.53;1.05;;;;;;;;;;5038380;28;20056;-66
2021/04/20 12:42:13;;;;;;;2.60;1.10;;;;;;;;;;5037262;28;20043;-64
2021/04/20 12:44:52;;;;;;;4.05;1.17;;;;;;;;;;5039082;28;20039;-64
2021/04/20 12:47:20;;;;;;;3.22;1.60;;;;;;;;;;5055569;28;20028;-65
2021/04/20 12:49:49;;;;;;;2.05;1.10;;;;;;;;;;5056765;28;20093;-67
2021/04/20 12:52:17;;;;;;;3.72;1.10;;;;;;;;;;5029779;28;20067;-65
2021/04/20 12:54:46;;;;;;;1.63;1.20;;;;;;;;;;5017405;28;20039;-66
2021/04/20 12:57:19;;;;;;;1.83;1.08;;;;;;;;;;5057467;28;20032;-64
2021/04/20 12:59:56;;;;;;;2.45;1.17;;;;;;;;;;5040778;28;20104;-66
2021/04/20 13:02:22;;;;;;;3.50;1.33;;;;;;;;;;5035770;28;20614;-65
2021/04/20 13:04:51;;;;;;;1.48;1.15;;;;;;;;;;5057590;28;20039;-65
2021/04/20 13:07:24;;;;;;;1.42;1.10;;;;;;;;;;5037151;28;20036;-65
2021/04/20 13:09:50;;;;;;;3.53;1.30;;;;;;;;;;5039739;28;20024;-66
2021/04/20 13:12:22;;;;;;;2.80;0.98;;;;;;;;;;5042445;28;20039;-65
2021/04/20 13:14:51;;;;;;;3.08;1.20;;;;;;;;;;5039248;28;20079;-67
2021/04/20 13:17:18;;;;;;;3.40;1.48;;;;;;;;;;5025938;28;20563;-65
2021/04/20 13:19:47;;;;;;;2.55;1.30;;;;;;;;;;5044091;28;20593;-66
2021/04/20 13:22:16;;;;;;;6.35;1.30;;;;;;;;;;5039123;28;20028;-64
2021/04/20 13:24:43;;;;;;;1.55;1.30;;;;;;;;;;5046913;28;22128;-64
2021/04/20 13:27:11;;;;;;;6.28;1.75;;;;;;;;;;5036740;28;20043;-66
2021/04/20 13:29:44;;;;;;;2.05;1.23;;;;;;;;;;5039863;28;20256;-65
2021/04/20 13:32:12;;;;;;;8.45;1.40;;;;;;;;;;5038179;28;20969;-65
2021/04/20 13:34:40;;;;;;;2.40;1.35;;;;;;;;;;5040554;28;20035;-65
2021/04/20 13:37:26;;;;;;;2.08;1.20;;;;;;;;;;5035769;28;20562;-64
2021/04/20 13:39:54;;;;;;;2.25;1.50;;;;;;;;;;5025441;28;20121;-65
2021/04/20 13:42:24;;;;;;;2.13;1.30;;;;;;;;;;5036552;28;20029;-64
2021/04/20 13:44:59;;;;;;;2.45;1.33;;;;;;;;;;5037860;28;20040;-68
2021/04/20 13:47:29;;;;;;;2.00;1.48;;;;;;;;;;5034442;28;20025;-66
2021/04/20 13:49:57;;;;;;;7.15;1.67;;;;;;;;;;5036852;28;20455;-65
2021/04/20 13:52:27;;;;;;;1.23;1.10;;;;;;;;;;5039875;28;20032;-65
2021/04/20 13:54:57;;;;;;;2.88;1.35;;;;;;;;;;5025881;28;20522;-66
2021/04/20 13:57:25;;;;;;;3.08;1.38;;;;;;;;;;5039522;28;20032;-65
2021/04/20 13:59:59;;;;;;;5.32;1.13;;;;;;;;;;5040959;28;20502;-64
2021/04/20 14:02:28;;;;;;;2.10;1.35;;;;;;;;;;5022978;28;20036;-66
2021/04/20 14:04:58;;;;;;;3.53;1.38;;;;;;;;;;5036331;28;20115;-69
2021/04/20 14:07:27;;;;;;;2.10;1.45;;;;;;;;;;5050396;28;20447;-65
2021/04/20 14:09:57;;;;;;;2.67;1.40;;;;;;;;;;5034887;28;20024;-67
2021/04/20 14:12:27;;;;;;;4.72;1.25;;;;;;;;;;5034383;28;20123;-65
2021/04/20 14:14:55;;;;;;;2.83;1.27;;;;;;;;;;5024267;28;20131;-66
2021/04/20 14:17:27;;;;;;;1.95;1.02;;;;;;;;;;5037956;28;20044;-66
2021/04/20 14:19:54;;;;;;;3.33;1.17;;;;;;;;;;5041931;28;22025;-65
2021/04/20 14:22:23;;;;;;;3.80;1.30;;;;;;;;;;5036982;28;20171;-65
2021/04/20 14:24:54;;;;;;;2.22;1.35;;;;;;;;;;5038929;28;20052;-65
2021/04/20 14:27:20;;;;;;;3.50;1.52;;;;;;;;;;5038328;28;20025;-65
2021/04/20 14:29:48;;;;;;;2.20;1.35;;;;;;;;;;5037870;28;20059;-65
2021/04/20 14:32:18;;;;;;;3.13;1.73;;;;;;;;;;5038893;28;20116;-65
2021/04/20 14:34:49;;;;;;;2.90;1.70;;;;;;;;;;5039438;28;20024;-66
2021/04/20 14:37:17;;;;;;;1.60;1.50;;;;;;;;;;5036915;28;20041;-65
2021/04/20 14:39:46;;;;;;;2.28;1.48;;;;;;;;;;5039907;28;20107;-65
2021/04/20 14:42:15;;;;;;;2.42;1.63;;;;;;;;;;5036635;28;20036;-65
2021/04/20 14:44:42;;;;;;;3.08;1.80;;;;;;;;;;5039549;28;20527;-65
2021/04/20 14:47:11;;;;;;;2.83;1.73;;;;;;;;;;5034311;28;20029;-68